createdAt,value
2023-03-11T00:02:27.639Z,91.50
2023-03-11T00:06:09.644Z,91.40
2023-03-11T00:09:51.380Z,91.20
2023-03-11T00:13:33.253Z,90.90
2023-03-11T00:17:15.028Z,90.70
2023-03-11T00:20:57.935Z,90.70
2023-03-11T00:24:39.637Z,91.10
2023-03-11T00:28:25.291Z,90.90
2023-03-11T00:32:07.466Z,90.90
2023-03-11T00:35:50.324Z,90.80
2023-03-11T00:39:32.121Z,90.90
2023-03-11T00:43:14.215Z,90.60
2023-03-11T00:46:56.175Z,90.80
2023-03-11T00:50:38.104Z,90.40
2023-03-11T00:54:19.917Z,90.40
2023-03-11T00:58:05.114Z,90.40
2023-03-11T01:01:46.896Z,90.50
2023-03-11T01:05:31.400Z,90.60
2023-03-11T01:09:13.325Z,90.80
2023-03-11T01:12:55.124Z,90.90
2023-03-11T01:16:36.900Z,90.90
2023-03-11T01:20:18.860Z,90.90
2023-03-11T01:24:00.702Z,90.90
2023-03-11T01:27:42.712Z,91.40
2023-03-11T01:31:24.567Z,91.20
2023-03-11T01:35:06.844Z,91.20
2023-03-11T01:38:48.624Z,91.20
2023-03-11T01:42:30.364Z,91.30
2023-03-11T01:46:32.020Z,91.50
2023-03-11T01:50:14.029Z,91.60
2023-03-11T01:53:57.372Z,91.60
2023-03-11T01:57:40.946Z,91.40
2023-03-11T02:01:23.868Z,91.30
2023-03-11T02:05:05.828Z,91.20
2023-03-11T02:08:48.315Z,91.20
2023-03-11T02:12:33.834Z,91.10
2023-03-11T02:16:16.403Z,91.20
2023-03-11T02:20:32.694Z,91.30
2023-03-11T02:24:57.031Z,91.40
2023-03-11T02:28:40.832Z,91.30
2023-03-11T02:32:22.907Z,91.10
2023-03-11T02:36:05.487Z,90.90
2023-03-11T02:39:50.056Z,90.80
2023-03-11T02:43:36.862Z,90.70
2023-03-11T02:47:18.832Z,90.70
2023-03-11T02:51:00.687Z,90.70
2023-03-11T02:54:42.378Z,90.90
2023-03-11T02:58:24.200Z,91.20
2023-03-11T03:02:05.989Z,91.40
2023-03-11T03:05:47.832Z,91.60
2023-03-11T03:09:29.588Z,91.70
2023-03-11T03:13:11.405Z,91.80
2023-03-11T03:16:53.289Z,91.90
2023-03-11T03:20:35.101Z,91.90
2023-03-11T03:24:16.876Z,92.00
2023-03-11T03:27:58.597Z,92.10
2023-03-11T03:31:40.335Z,92.20
2023-03-11T03:35:22.100Z,92.30
2023-03-11T03:39:04.916Z,92.40
2023-03-11T03:42:46.676Z,92.40
2023-03-11T03:46:28.557Z,92.40
2023-03-11T03:50:11.583Z,92.50
2023-03-11T03:53:53.381Z,92.40
2023-03-11T03:57:35.176Z,92.40
2023-03-11T04:01:17.335Z,92.40
2023-03-11T04:04:59.037Z,92.60
2023-03-11T04:08:40.802Z,92.40
2023-03-11T04:12:22.587Z,92.40
2023-03-11T04:16:06.308Z,92.50
2023-03-11T04:19:48.022Z,92.50
2023-03-11T04:23:29.774Z,92.60
2023-03-11T04:27:11.575Z,92.70
2023-03-11T04:30:53.377Z,92.80
2023-03-11T04:34:35.217Z,92.90
2023-03-11T04:38:17.072Z,92.80
2023-03-11T04:41:58.858Z,92.70
2023-03-11T04:45:42.356Z,92.70
2023-03-11T04:49:23.968Z,92.70
2023-03-11T04:53:05.689Z,92.20
2023-03-11T04:56:47.388Z,92.70
2023-03-11T05:00:29.146Z,92.60
2023-03-11T05:04:11.989Z,92.60
2023-03-11T05:07:53.845Z,92.70
2023-03-11T05:11:35.985Z,92.70
2023-03-11T05:15:19.043Z,93.00
2023-03-11T05:19:00.794Z,92.70
2023-03-11T05:22:42.531Z,92.60
2023-03-11T05:26:24.273Z,92.70
2023-03-11T05:30:07.029Z,92.60
2023-03-11T05:33:48.728Z,92.60
2023-03-11T05:37:33.463Z,92.60
2023-03-11T05:41:15.195Z,92.40
2023-03-11T05:44:56.901Z,92.60
2023-03-11T05:48:39.234Z,92.50
2023-03-11T05:52:20.994Z,92.40
2023-03-11T05:56:02.863Z,92.50
2023-03-11T05:59:44.812Z,92.50
2023-03-11T06:03:26.620Z,92.50
2023-03-11T06:07:08.429Z,92.40
2023-03-11T06:10:50.167Z,92.40
2023-03-11T06:14:32.628Z,92.40
2023-03-11T06:18:14.354Z,92.40
2023-03-11T06:21:56.070Z,92.30
2023-03-11T06:25:37.781Z,92.30
2023-03-11T06:29:19.587Z,92.30
2023-03-11T06:33:01.465Z,92.30
2023-03-11T06:36:43.164Z,92.60
2023-03-11T06:40:24.871Z,92.30
2023-03-11T06:44:06.595Z,92.30
2023-03-11T06:47:48.336Z,92.30
2023-03-11T06:51:30.130Z,92.30
2023-03-11T06:55:11.953Z,92.30
2023-03-11T06:58:54.715Z,92.30
2023-03-11T07:02:36.421Z,92.20
2023-03-11T07:06:23.528Z,92.30
2023-03-11T07:10:06.492Z,92.00
2023-03-11T07:13:48.430Z,92.40
2023-03-11T07:17:30.164Z,92.40
2023-03-11T07:21:15.368Z,92.80
2023-03-11T07:24:57.154Z,92.30
2023-03-11T07:28:39.332Z,92.50
2023-03-11T07:32:21.108Z,92.60
2023-03-11T07:36:11.822Z,92.60
2023-03-11T07:39:53.571Z,92.00
2023-03-11T07:43:35.337Z,92.70
2023-03-11T07:47:17.144Z,92.70
2023-03-11T07:51:13.586Z,92.80
2023-03-11T07:54:55.281Z,92.40
2023-03-11T07:58:37.560Z,93.10
2023-03-11T08:02:19.342Z,93.20
2023-03-11T08:06:01.596Z,93.10
2023-03-11T08:09:43.623Z,93.10
2023-03-11T08:13:25.903Z,93.30
2023-03-11T08:17:07.664Z,93.20
2023-03-11T08:20:50.075Z,93.40
2023-03-11T08:24:31.835Z,93.40
2023-03-11T08:28:13.689Z,93.40
2023-03-11T08:31:55.391Z,93.40
2023-03-11T08:35:37.774Z,93.60
2023-03-11T08:39:19.764Z,93.70
2023-03-11T08:43:01.557Z,93.70
2023-03-11T08:46:43.352Z,93.80
2023-03-11T08:50:25.361Z,93.70
2023-03-11T08:54:07.081Z,93.60
2023-03-11T08:57:48.780Z,93.50
2023-03-11T09:01:30.601Z,93.50
2023-03-11T09:05:12.318Z,93.50
2023-03-11T09:08:54.035Z,93.50
2023-03-11T09:12:35.745Z,93.60
2023-03-11T09:16:20.340Z,93.50
2023-03-11T09:20:02.364Z,93.50
2023-03-11T09:23:44.697Z,93.40
2023-03-11T09:27:26.509Z,93.40
2023-03-11T09:31:08.474Z,93.50
2023-03-11T09:34:50.212Z,93.40
2023-03-11T09:38:31.964Z,93.40
2023-03-11T09:42:42.556Z,93.40
2023-03-11T09:46:48.376Z,92.40
2023-03-11T09:50:40.980Z,92.60
2023-03-11T09:54:23.247Z,92.90
2023-03-11T09:58:12.634Z,93.30
2023-03-11T10:01:54.488Z,92.90
2023-03-11T10:05:37.133Z,93.50
2023-03-11T10:09:40.790Z,93.70
2023-03-11T10:13:38.994Z,92.90
2023-03-11T10:17:45.323Z,93.30
2023-03-11T10:21:35.839Z,93.30
2023-03-11T10:25:19.270Z,93.50
2023-03-11T10:29:19.373Z,93.50
2023-03-11T10:33:27.813Z,92.80
2023-03-11T10:37:17.195Z,92.70
2023-03-11T10:41:13.625Z,93.10
2023-03-11T10:44:55.394Z,93.20
2023-03-11T10:48:37.177Z,93.40
2023-03-11T10:52:19.655Z,93.10
2023-03-11T10:56:01.478Z,93.00
2023-03-11T10:59:50.519Z,92.90
2023-03-11T11:03:33.829Z,92.60
2023-03-11T11:07:21.722Z,92.80
2023-03-11T11:11:04.627Z,91.70
2023-03-11T11:14:46.406Z,92.60
2023-03-11T11:18:48.873Z,92.80
2023-03-11T11:22:32.236Z,92.70
2023-03-11T11:26:25.696Z,92.70
2023-03-11T11:30:08.779Z,91.80
2023-03-11T11:33:53.233Z,91.00
2023-03-11T11:37:37.443Z,92.00
2023-03-11T11:41:22.230Z,92.00
2023-03-11T11:45:14.679Z,91.70
2023-03-11T11:49:20.911Z,91.40
2023-03-11T11:53:36.616Z,90.50
2023-03-11T11:57:21.473Z,90.50
2023-03-11T12:01:27.595Z,91.30
2023-03-11T12:05:12.171Z,90.60
2023-03-11T12:09:30.130Z,90.90
2023-03-11T12:13:23.516Z,89.30
2023-03-11T12:17:05.591Z,89.40
2023-03-11T12:20:54.120Z,90.40
2023-03-11T12:24:44.629Z,89.90
2023-03-11T12:28:32.465Z,87.90
2023-03-11T12:32:44.169Z,87.50
2023-03-11T12:36:32.013Z,86.30
2023-03-11T12:40:59.521Z,88.10
2023-03-11T12:44:42.099Z,86.80
2023-03-11T12:48:29.905Z,88.60
2023-03-11T12:52:11.686Z,87.10
2023-03-11T12:56:15.995Z,88.50
2023-03-11T13:00:18.109Z,86.30
2023-03-11T13:04:10.203Z,88.20
2023-03-11T13:08:04.231Z,86.70
2023-03-11T13:11:48.107Z,85.90
2023-03-11T13:15:35.366Z,87.80
2023-03-11T13:19:26.414Z,87.20
2023-03-11T13:23:09.731Z,86.40
2023-03-11T13:27:02.209Z,86.60
2023-03-11T13:30:53.574Z,84.20
2023-03-11T13:34:57.593Z,85.40
2023-03-11T13:38:58.596Z,85.00
2023-03-11T13:42:52.002Z,85.70
2023-03-11T13:46:40.116Z,85.30
2023-03-11T13:50:53.592Z,86.30
2023-03-11T13:54:49.032Z,85.10
2023-03-11T13:58:30.772Z,85.70
2023-03-11T14:02:19.826Z,86.30
2023-03-11T14:06:07.643Z,85.60
2023-03-11T14:09:49.436Z,85.90
2023-03-11T14:13:33.959Z,86.30
2023-03-11T14:17:18.818Z,86.40
2023-03-11T14:21:01.531Z,86.80
2023-03-11T14:24:48.278Z,87.10
2023-03-11T14:28:33.893Z,87.00
2023-03-11T14:32:29.303Z,87.40
2023-03-11T14:36:14.094Z,87.40
2023-03-11T14:39:55.829Z,88.00
2023-03-11T14:43:41.378Z,88.30
2023-03-11T14:47:49.060Z,88.50
2023-03-11T14:51:33.436Z,88.60
2023-03-11T14:55:33.660Z,89.00
2023-03-11T14:59:26.755Z,89.50
2023-03-11T15:03:33.296Z,90.00
2023-03-11T15:07:20.032Z,90.30
2023-03-11T15:11:06.222Z,90.10
2023-03-11T15:14:52.061Z,90.30
2023-03-11T15:18:37.867Z,90.50
2023-03-11T15:22:24.645Z,90.60
2023-03-11T15:26:07.073Z,90.60
2023-03-11T15:29:53.001Z,90.80
2023-03-11T15:33:35.224Z,91.40
2023-03-11T15:37:21.377Z,91.20
2023-03-11T15:41:03.775Z,91.80
2023-03-11T15:44:51.290Z,91.60
2023-03-11T15:48:33.094Z,91.90
2023-03-11T15:52:15.864Z,91.70
2023-03-11T15:56:07.398Z,91.80
2023-03-11T15:59:51.718Z,92.00
2023-03-11T16:03:33.706Z,92.10
2023-03-11T16:07:16.254Z,92.10
2023-03-11T16:10:58.763Z,92.20
2023-03-11T16:14:40.561Z,92.50
2023-03-11T16:18:22.324Z,92.20
2023-03-11T16:22:04.822Z,92.40
2023-03-11T16:25:47.383Z,92.90
2023-03-11T16:29:29.264Z,92.80
2023-03-11T16:33:11.103Z,92.80
2023-03-11T16:36:52.793Z,92.90
2023-03-11T16:40:35.047Z,93.00
2023-03-11T16:44:16.889Z,93.10
2023-03-11T16:47:58.830Z,93.20
2023-03-11T16:51:40.523Z,93.40
2023-03-11T16:55:23.382Z,93.50
2023-03-11T16:59:05.184Z,94.00
2023-03-11T17:02:46.958Z,93.80
2023-03-11T17:06:28.676Z,93.90
2023-03-11T17:10:11.781Z,94.10
2023-03-11T17:13:55.395Z,94.30
2023-03-11T17:17:40.301Z,94.20
2023-03-11T17:21:22.475Z,94.40
2023-03-11T17:25:04.861Z,94.50
2023-03-11T17:28:46.768Z,94.50
2023-03-11T17:32:29.477Z,94.60
2023-03-11T17:36:16.005Z,94.70
2023-03-11T17:39:57.839Z,94.80
2023-03-11T17:43:40.360Z,94.60
2023-03-11T17:47:25.961Z,94.80
2023-03-11T17:51:12.644Z,94.80
2023-03-11T17:54:56.485Z,95.00
2023-03-11T17:58:38.502Z,95.00
2023-03-11T18:02:20.777Z,95.10
2023-03-11T18:06:05.058Z,95.00
2023-03-11T18:09:46.803Z,95.10
2023-03-11T18:13:29.484Z,95.00
2023-03-11T18:17:11.302Z,95.50
2023-03-11T18:20:53.095Z,95.20
2023-03-11T18:24:34.988Z,95.20
2023-03-11T18:28:16.993Z,95.50
2023-03-11T18:31:58.795Z,95.30
2023-03-11T18:35:40.577Z,95.40
2023-03-11T18:39:22.289Z,95.40
2023-03-11T18:43:04.137Z,95.40
2023-03-11T18:46:45.881Z,95.50
2023-03-11T18:50:28.707Z,95.50
2023-03-11T18:54:10.596Z,95.70
2023-03-11T18:57:53.219Z,95.60
2023-03-11T19:01:35.112Z,95.70
2023-03-11T19:05:17.045Z,95.60
2023-03-11T19:08:59.046Z,95.70
2023-03-11T19:12:43.093Z,95.80
2023-03-11T19:16:26.879Z,95.90
2023-03-11T19:20:09.631Z,95.90
2023-03-11T19:23:55.030Z,95.90
2023-03-11T19:27:38.967Z,95.80
2023-03-11T19:31:20.832Z,95.80
2023-03-11T19:35:02.597Z,95.80
2023-03-11T19:38:44.373Z,95.90
2023-03-11T19:42:26.163Z,95.90
2023-03-11T19:46:09.287Z,96.00
2023-03-11T19:49:51.116Z,96.10
2023-03-11T19:53:33.701Z,96.20
2023-03-11T19:57:16.944Z,96.20
2023-03-11T20:00:59.808Z,96.20
2023-03-11T20:04:43.223Z,96.20
2023-03-11T20:08:25.902Z,96.30
2023-03-11T20:12:07.908Z,96.30
2023-03-11T20:15:50.313Z,96.30
2023-03-11T20:19:32.111Z,96.40
2023-03-11T20:23:14.144Z,96.40
2023-03-11T20:26:55.836Z,96.40
2023-03-11T20:30:39.055Z,96.40
2023-03-11T20:34:21.110Z,96.50
2023-03-11T20:38:03.132Z,96.50
2023-03-11T20:41:44.957Z,96.50
2023-03-11T20:45:26.831Z,96.50
2023-03-11T20:49:08.795Z,96.50
2023-03-11T20:52:51.179Z,96.60
2023-03-11T20:56:33.019Z,96.60
2023-03-11T21:00:15.184Z,96.70
2023-03-11T21:04:00.002Z,96.70
2023-03-11T21:07:41.938Z,97.10
2023-03-11T21:11:24.988Z,96.80
2023-03-11T21:15:08.073Z,97.00
2023-03-11T21:18:50.245Z,97.10
2023-03-11T21:22:32.829Z,97.10
2023-03-11T21:26:16.302Z,97.10
2023-03-11T21:29:59.386Z,97.20
2023-03-11T21:33:41.992Z,97.20
2023-03-11T21:37:24.115Z,97.30
2023-03-11T21:41:11.998Z,97.30
2023-03-11T21:44:54.027Z,97.40
2023-03-11T21:48:36.133Z,97.30
2023-03-11T21:52:18.760Z,97.50
2023-03-11T21:56:01.389Z,97.50
2023-03-11T21:59:43.295Z,97.60
2023-03-11T22:03:25.265Z,97.60
2023-03-11T22:07:07.086Z,97.60
2023-03-11T22:10:48.795Z,97.70
2023-03-11T22:14:30.820Z,97.70
2023-03-11T22:18:12.756Z,97.70
2023-03-11T22:21:54.724Z,97.70
2023-03-11T22:25:36.778Z,97.80
2023-03-11T22:29:18.598Z,97.80
2023-03-11T22:33:00.334Z,97.90
2023-03-11T22:36:42.111Z,98.00
2023-03-11T22:40:23.835Z,98.10
2023-03-11T22:44:05.690Z,98.20
2023-03-11T22:47:47.896Z,98.30
2023-03-11T22:51:29.639Z,98.30
2023-03-11T22:55:11.724Z,98.40
2023-03-11T22:58:53.783Z,98.50
2023-03-11T23:02:35.724Z,98.50
2023-03-11T23:06:19.645Z,98.50
2023-03-11T23:10:01.408Z,98.60
2023-03-11T23:13:44.366Z,98.60
2023-03-11T23:17:29.414Z,98.60
2023-03-11T23:21:15.126Z,98.80
2023-03-11T23:25:01.500Z,98.90
2023-03-11T23:28:46.228Z,98.70
2023-03-11T23:32:28.724Z,98.80
2023-03-11T23:36:15.662Z,98.80
2023-03-11T23:40:01.660Z,98.90
2023-03-11T23:43:46.936Z,98.80
2023-03-11T23:47:31.576Z,98.90
2023-03-11T23:51:14.042Z,99.00
2023-03-11T23:54:56.412Z,98.90
2023-03-11T23:58:39.504Z,98.90
